This is the latest recevied weather packets stored in our database for station/object NG7M. If no packets are shown the sender has not sent any weather packets the latest 10 day(s).
| Time | Temp. | Humidity | Pressure | Rain* | Wind** | Luminosity | Snow |
|---|---|---|---|---|---|---|---|
| 1777950904 | 18.89° C | 30% | 1005.4 hPa | 0 mm | - | - | - |
| 1777947904 | 20° C | 28% | 1005.1 hPa | 0 mm | - | - | - |
| 1777947603 | 20° C | 28% | 1004.9 hPa | 0 mm | - | - | - |
| 1777944903 | 21.67° C | 24% | 1004.5 hPa | 0 mm | - | - | - |
| 1777940104 | 22.22° C | 24% | 1005.3 hPa | 0 mm | - | - | - |
| 1777939803 | 22.22° C | 24% | 1005.4 hPa | 0 mm | - | - | - |
| 1777938004 | 22.78° C | 21% | 1005.5 hPa | 0 mm | - | - | - |
| 1777936804 | 22.78° C | 21% | 1005.6 hPa | 0 mm | - | - | - |
| 1777934704 | 22.78° C | 22% | 1005.6 hPa | 0 mm | - | - | - |
| 1777930204 | 24.44° C | 18% | 1006.1 hPa | 0 mm | - | - | - |
| 1777929904 | 24.44° C | 17% | 1006.4 hPa | 0 mm | - | - | - |
| 1777928404 | 25° C | 17% | 1006.4 hPa | 0 mm | - | - | - |
| 1777926904 | 23.89° C | 19% | 1006.8 hPa | 0 mm | - | - | - |
| 1777922103 | 23.33° C | 21% | 1007.3 hPa | 0 mm | - | - | - |
| 1777917303 | 22.78° C | 22% | 1008.8 hPa | 0 mm | - | - | - |
| 1777914903 | 21.67° C | 25% | 1008.7 hPa | 0 mm | - | - | - |
| 1777913104 | 21.11° C | 28% | 1008.7 hPa | 0 mm | - | - | - |
| 1777912204 | 20.56° C | 29% | 1008.7 hPa | 0 mm | - | - | - |
| 1777911903 | 20.56° C | 30% | 1008.7 hPa | 0 mm | - | - | - |
| 1777908603 | 18.89° C | 32% | 1009 hPa | 0 mm | - | - | - |
| 1777908304 | 18.89° C | 32% | 1009 hPa | 0 mm | - | - | - |
| 1777907103 | 18.33° C | 33% | 1009.1 hPa | 0 mm | - | - | - |
| 1777900503 | 15° C | 35% | 1009.5 hPa | 0 mm | - | - | - |
| 1777899904 | 14.44° C | 36% | 1009.3 hPa | 0 mm | - | - | - |
| 1777899304 | 13.33° C | 36% | 1009.1 hPa | 0 mm | - | - | - |
* Rain latest hour (hover to see other rain measurements)
** Current wind speed in m/s (hover to see current wind gust speed)